createdAt,value
2018-02-21T00:00:31.347Z,91.58
2018-02-21T00:01:31.358Z,91.48
2018-02-21T00:02:31.116Z,91.29
2018-02-21T00:03:31.384Z,91.2
2018-02-21T00:05:31.407Z,91.58
2018-02-21T00:06:31.416Z,91.39
2018-02-21T00:07:31.429Z,91.58
2018-02-21T00:08:31.445Z,91.39
2018-02-21T00:09:31.453Z,91.2
2018-02-21T00:10:31.467Z,91.39
2018-02-21T00:11:31.481Z,91.39
2018-02-21T00:12:31.232Z,91.2
2018-02-21T00:13:31.547Z,91.39
2018-02-21T00:14:31.516Z,91.1
2018-02-21T00:15:31.523Z,91.2
2018-02-21T00:16:31.535Z,91.2
2018-02-21T00:17:31.545Z,91.48
2018-02-21T00:18:31.303Z,91.96
2018-02-21T00:19:31.569Z,91.48
2018-02-21T00:20:31.327Z,91.39
2018-02-21T00:21:31.592Z,91.29
2018-02-21T00:22:31.605Z,91.48
2018-02-21T00:23:31.364Z,91.58
2018-02-21T00:24:31.627Z,91.48
2018-02-21T00:25:31.639Z,91.58
2018-02-21T00:26:46.318Z,91.29
2018-02-21T00:27:31.661Z,91.96
2018-02-21T00:28:31.680Z,92.05
2018-02-21T00:29:31.684Z,91.2
2018-02-21T00:30:31.703Z,91.96
2018-02-21T00:31:31.709Z,91.67
2018-02-21T00:32:31.726Z,91.77
2018-02-21T00:33:31.733Z,92.33
2018-02-21T00:34:31.751Z,92.24
2018-02-21T00:35:31.504Z,92.05
2018-02-21T00:36:31.512Z,92.24
2018-02-21T00:37:31.524Z,92.52
2018-02-21T00:38:31.535Z,91.77
2018-02-21T00:39:31.803Z,91.86
2018-02-21T00:40:31.818Z,91.86
2018-02-21T00:41:31.828Z,91.86
2018-02-21T00:42:46.505Z,91.86
2018-02-21T00:43:31.851Z,91.86
2018-02-21T00:44:31.861Z,91.86
2018-02-21T00:45:31.873Z,92.43
2018-02-21T00:46:31.888Z,92.14
2018-02-21T00:47:31.896Z,92.43
2018-02-21T00:48:31.910Z,92.33
2018-02-21T00:49:31.918Z,92.71
2018-02-21T00:50:31.935Z,92.61
2018-02-21T00:51:31.943Z,92.61
2018-02-21T00:52:31.953Z,92.61
2018-02-21T00:53:31.966Z,92.33
2018-02-21T00:54:31.979Z,92.14
2018-02-21T00:55:31.733Z,92.24
2018-02-21T00:56:32.004Z,92.61
2018-02-21T00:57:32.013Z,92.24
2018-02-21T00:58:46.689Z,92.9
2018-02-21T00:59:32.035Z,92.9
2018-02-21T01:00:32.046Z,92.61
2018-02-21T01:01:32.060Z,92.99
2018-02-21T01:02:32.071Z,92.24
2018-02-21T01:03:32.080Z,92.99
2018-02-21T01:04:32.094Z,92.99
2018-02-21T01:05:32.106Z,92.71
2018-02-21T01:06:32.117Z,93.09
2018-02-21T01:07:32.127Z,92.8
2018-02-21T01:08:31.884Z,93.28
2018-02-21T01:09:32.150Z,93.09
2018-02-21T01:10:32.163Z,93.37
2018-02-21T01:11:32.176Z,93.47
2018-02-21T01:12:32.187Z,93.47
2018-02-21T01:13:32.204Z,93.18
2018-02-21T01:14:46.875Z,93.47
2018-02-21T01:15:32.222Z,93.56
2018-02-21T01:16:32.292Z,93.18
2018-02-21T01:17:31.987Z,93.47
2018-02-21T01:18:32.014Z,93.09
2018-02-21T01:19:32.268Z,93.66
2018-02-21T01:20:32.278Z,93.47
2018-02-21T01:21:32.033Z,93.56
2018-02-21T01:22:32.044Z,93.84
2018-02-21T01:23:32.318Z,93.47
2018-02-21T01:24:32.322Z,93.94
2018-02-21T01:25:32.335Z,94.13
2018-02-21T01:26:32.347Z,93.94
2018-02-21T01:27:32.357Z,93.94
2018-02-21T01:28:32.372Z,93.84
2018-02-21T01:29:47.048Z,94.13
2018-02-21T01:31:32.406Z,93.75
2018-02-21T01:32:32.416Z,94.22
2018-02-21T01:33:32.426Z,93.94
2018-02-21T01:34:32.183Z,94.22
2018-02-21T01:35:32.450Z,94.22
2018-02-21T01:36:32.462Z,94.03
2018-02-21T01:37:32.473Z,94.22
2018-02-21T01:38:32.485Z,94.51
2018-02-21T01:39:32.495Z,94.7
2018-02-21T01:40:32.532Z,94.7
2018-02-21T01:41:32.265Z,94.89
2018-02-21T01:42:32.534Z,94.89
2018-02-21T01:43:32.543Z,94.98
2018-02-21T01:44:32.555Z,94.6
2018-02-21T01:45:32.564Z,94.7
2018-02-21T01:46:32.576Z,94.89
2018-02-21T01:47:32.588Z,95.26
2018-02-21T01:48:32.345Z,95.17
2018-02-21T01:49:32.615Z,95.54
2018-02-21T01:50:32.622Z,95.26
2018-02-21T01:51:32.634Z,95.17
2018-02-21T01:52:32.650Z,95.45
2018-02-21T01:53:32.660Z,95.54
2018-02-21T01:54:32.667Z,95.54
2018-02-21T01:55:32.682Z,95.64
2018-02-21T01:56:32.692Z,95.07
2018-02-21T01:57:32.700Z,95.54
2018-02-21T01:58:32.716Z,95.54
2018-02-21T01:59:32.730Z,95.26
2018-02-21T02:00:32.483Z,95.45
2018-02-21T02:01:47.416Z,95.45
2018-02-21T02:02:32.762Z,95.45
2018-02-21T02:03:32.773Z,95.26
2018-02-21T02:04:32.785Z,95.73
2018-02-21T02:05:32.543Z,95.92
2018-02-21T02:06:32.809Z,95.26
2018-02-21T02:07:32.820Z,95.54
2018-02-21T02:08:32.829Z,95.73
2018-02-21T02:09:32.840Z,95.83
2018-02-21T02:10:32.853Z,95.59
2018-02-21T02:11:32.865Z,95.83
2018-02-21T02:12:32.875Z,96.02
2018-02-21T02:13:32.888Z,95.64
2018-02-21T02:14:32.643Z,95.78
2018-02-21T02:15:32.911Z,96.11
2018-02-21T02:16:32.920Z,96.35
2018-02-21T02:17:47.599Z,95.97
2018-02-21T02:18:32.953Z,96.02
2018-02-21T02:19:32.954Z,95.78
2018-02-21T02:20:32.968Z,95.68
2018-02-21T02:21:32.979Z,95.68
2018-02-21T02:22:32.986Z,95.68
2018-02-21T02:23:33.001Z,95.87
2018-02-21T02:24:33.013Z,95.78
2018-02-21T02:25:33.030Z,96.63
2018-02-21T02:26:33.039Z,95.78
2018-02-21T02:27:33.047Z,96.63
2018-02-21T02:28:33.057Z,96.06
2018-02-21T02:29:33.070Z,96.16
2018-02-21T02:30:33.091Z,96.4
2018-02-21T02:31:33.103Z,96.06
2018-02-21T02:32:33.106Z,96.35
2018-02-21T02:33:47.781Z,96.35
2018-02-21T02:34:33.130Z,96.06
2018-02-21T02:35:33.139Z,95.97
2018-02-21T02:36:33.150Z,96.54
2018-02-21T02:37:33.158Z,96.54
2018-02-21T02:38:33.173Z,96.35
2018-02-21T02:39:33.183Z,96.35
2018-02-21T02:40:33.198Z,96.25
2018-02-21T02:41:33.208Z,96.16
2018-02-21T02:42:33.220Z,96.16
2018-02-21T02:43:33.227Z,96.54
2018-02-21T02:44:33.240Z,96.44
2018-02-21T02:45:33.254Z,96.73
2018-02-21T02:47:33.287Z,96.54
2018-02-21T02:48:33.287Z,96.54
2018-02-21T02:49:47.963Z,96.63
2018-02-21T02:50:33.307Z,96.63
2018-02-21T02:51:33.323Z,96.73
2018-02-21T02:52:33.333Z,96.63
2018-02-21T02:53:33.348Z,96.73
2018-02-21T02:54:33.360Z,96.91
2018-02-21T02:55:33.365Z,96.91
2018-02-21T02:56:33.377Z,96.91
2018-02-21T02:57:33.386Z,96.91
2018-02-21T02:58:33.409Z,96.91
2018-02-21T02:59:33.409Z,97.2
2018-02-21T03:00:33.424Z,96.91
2018-02-21T03:01:33.437Z,96.91
2018-02-21T03:02:33.444Z,97.01
2018-02-21T03:04:48.134Z,97.29
2018-02-21T03:05:33.481Z,97.2
2018-02-21T03:06:33.493Z,97.29
2018-02-21T03:07:33.545Z,97.48
2018-02-21T03:08:33.510Z,97.39
2018-02-21T03:09:33.523Z,97.58
2018-02-21T03:10:33.537Z,97.77
2018-02-21T03:11:33.542Z,97.39
2018-02-21T03:12:33.558Z,97.39
2018-02-21T03:13:33.568Z,97.39
2018-02-21T03:14:33.324Z,97.77
2018-02-21T03:15:33.589Z,97.58
2018-02-21T03:16:33.602Z,97.58
2018-02-21T03:17:33.613Z,97.39
2018-02-21T03:18:33.625Z,97.58
2018-02-21T03:19:33.381Z,97.39
2018-02-21T03:20:33.648Z,97.48
2018-02-21T03:21:33.658Z,97.39
2018-02-21T03:22:33.671Z,97.2
2018-02-21T03:23:33.680Z,97.48
2018-02-21T03:24:33.698Z,97.77
2018-02-21T03:25:33.703Z,97.39
2018-02-21T03:26:33.713Z,97.39
2018-02-21T03:27:33.726Z,97.58
2018-02-21T03:28:33.738Z,97.29
2018-02-21T03:29:33.748Z,97.67
2018-02-21T03:30:33.769Z,97.29
2018-02-21T03:31:33.774Z,97.58
2018-02-21T03:32:33.781Z,97.2
2018-02-21T03:33:33.538Z,97.39
2018-02-21T03:34:33.860Z,97.39
2018-02-21T03:35:33.814Z,97.29
2018-02-21T03:36:48.495Z,97.39
2018-02-21T03:37:33.840Z,97.96
2018-02-21T03:38:33.850Z,98.14
2018-02-21T03:39:33.864Z,97.96
2018-02-21T03:40:33.879Z,97.77
2018-02-21T03:41:33.632Z,97.58
2018-02-21T03:42:33.897Z,98.33
2018-02-21T03:43:33.908Z,98.33
2018-02-21T03:44:33.919Z,97.48
2018-02-21T03:45:33.675Z,97.67
2018-02-21T03:46:33.941Z,97.86
2018-02-21T03:47:33.952Z,98.05
2018-02-21T03:48:33.965Z,97.2
2018-02-21T03:49:33.993Z,97.2
2018-02-21T03:50:33.986Z,97.29
2018-02-21T03:51:33.997Z,97.29
2018-02-21T03:52:48.675Z,97.39
2018-02-21T03:53:33.764Z,97.2
2018-02-21T03:55:34.041Z,97.48
2018-02-21T03:57:34.062Z,97.58
2018-02-21T03:58:34.084Z,97.29
2018-02-21T03:59:34.089Z,97.58
2018-02-21T04:00:34.097Z,97.96
2018-02-21T04:01:34.108Z,97.86
2018-02-21T04:02:34.122Z,98.05
2018-02-21T04:03:34.132Z,97.48
2018-02-21T04:04:34.142Z,97.86
2018-02-21T04:05:34.152Z,98.33
2018-02-21T04:06:34.163Z,98.61
2018-02-21T04:07:34.177Z,98.52
2018-02-21T04:08:48.854Z,98.52
2018-02-21T04:09:34.197Z,99.37
2018-02-21T04:10:34.213Z,99.08
2018-02-21T04:11:34.221Z,98.8
2018-02-21T04:12:34.238Z,99.27
2018-02-21T04:13:34.246Z,99.08
2018-02-21T04:14:34.000Z,99.27
2018-02-21T04:15:34.268Z,99.08
2018-02-21T04:16:34.281Z,99.08
2018-02-21T04:17:34.292Z,99.08
2018-02-21T04:18:34.298Z,99.56
2018-02-21T04:19:34.314Z,99.08
2018-02-21T04:20:34.323Z,99.99
2018-02-21T04:21:34.335Z,99.84
2018-02-21T04:22:34.356Z,99.84
2018-02-21T04:23:34.355Z,99.65
2018-02-21T04:24:49.035Z,99.99
2018-02-21T04:26:34.393Z,99.99
2018-02-21T04:28:34.414Z,99.99
2018-02-21T04:29:34.424Z,99.99
2018-02-21T04:30:34.434Z,99.99
2018-02-21T04:31:34.446Z,99.99
2018-02-21T04:32:34.203Z,99.99
2018-02-21T04:33:34.470Z,99.99
2018-02-21T04:34:34.482Z,99.99
2018-02-21T04:35:34.492Z,99.99
2018-02-21T04:36:34.503Z,99.99
2018-02-21T04:38:34.527Z,99.99
2018-02-21T04:39:49.205Z,99.99
2018-02-21T04:43:34.611Z,99.99
2018-02-21T04:44:34.595Z,99.99
2018-02-21T04:45:34.604Z,99.99
2018-02-21T04:46:34.362Z,99.99
2018-02-21T04:47:34.626Z,99.99
2018-02-21T04:48:34.639Z,99.99
2018-02-21T04:49:34.396Z,99.99
2018-02-21T04:50:34.664Z,99.99
2018-02-21T04:51:34.417Z,99.99
2018-02-21T04:52:34.690Z,99.99
2018-02-21T04:53:34.696Z,99.99
2018-02-21T04:54:34.704Z,99.99
2018-02-21T04:55:34.717Z,99.99
2018-02-21T04:56:34.729Z,99.99
2018-02-21T04:58:34.752Z,99.99
2018-02-21T04:59:34.507Z,99.99
2018-02-21T05:00:34.783Z,99.99
2018-02-21T05:01:34.528Z,99.99
2018-02-21T05:02:34.896Z,99.99
2018-02-21T05:03:34.807Z,99.99
2018-02-21T05:04:34.820Z,99.99
2018-02-21T05:05:34.934Z,99.99
2018-02-21T05:06:34.842Z,99.99
2018-02-21T05:07:34.851Z,99.99
2018-02-21T05:08:34.864Z,99.99
2018-02-21T05:09:34.874Z,99.99
2018-02-21T05:10:34.885Z,99.99
2018-02-21T05:11:49.563Z,99.99
2018-02-21T05:12:34.908Z,99.99
2018-02-21T05:13:34.939Z,99.99
2018-02-21T05:14:34.931Z,99.99
2018-02-21T05:15:34.941Z,99.99
2018-02-21T05:16:35.049Z,99.99
2018-02-21T05:17:34.963Z,99.99
2018-02-21T05:18:34.974Z,99.99
2018-02-21T05:19:34.987Z,99.99
2018-02-21T05:20:34.998Z,99.99
2018-02-21T05:21:35.007Z,99.99
2018-02-21T05:22:35.020Z,99.99
2018-02-21T05:23:35.035Z,99.99
2018-02-21T05:24:34.786Z,99.99
2018-02-21T05:25:34.801Z,99.99
2018-02-21T05:26:35.064Z,99.99
2018-02-21T05:27:49.744Z,99.99
2018-02-21T05:30:35.118Z,99.99
2018-02-21T05:31:35.119Z,99.99
2018-02-21T05:32:35.128Z,99.99
2018-02-21T05:33:34.886Z,99.99
2018-02-21T05:34:35.151Z,99.99
2018-02-21T05:35:35.165Z,99.99
2018-02-21T05:36:34.946Z,99.99
2018-02-21T05:37:35.189Z,99.99
2018-02-21T05:38:35.195Z,99.99
2018-02-21T05:39:35.209Z,99.99
2018-02-21T05:40:35.218Z,99.99
2018-02-21T05:41:34.975Z,99.99
2018-02-21T05:42:35.241Z,99.99
2018-02-21T05:43:49.918Z,99.99
2018-02-21T05:44:35.262Z,99.99
2018-02-21T05:45:35.274Z,99.99
2018-02-21T05:46:35.284Z,99.99
2018-02-21T05:48:35.052Z,99.99
2018-02-21T05:49:35.319Z,99.99
2018-02-21T05:50:35.328Z,99.99
2018-02-21T05:51:35.345Z,99.99
2018-02-21T05:52:35.350Z,99.99
2018-02-21T05:53:35.368Z,99.99
2018-02-21T05:54:35.373Z,99.99
2018-02-21T05:55:35.387Z,99.99
2018-02-21T05:56:35.394Z,99.99
2018-02-21T05:57:35.410Z,99.99
2018-02-21T05:58:35.418Z,99.99
2018-02-21T05:59:50.103Z,99.99
2018-02-21T06:00:35.447Z,99.99
2018-02-21T06:01:35.452Z,99.99
2018-02-21T06:02:35.462Z,99.99
2018-02-21T06:03:35.476Z,99.99
2018-02-21T06:04:35.485Z,99.99
2018-02-21T06:05:35.240Z,99.99
2018-02-21T06:06:35.507Z,99.99
2018-02-21T06:07:35.517Z,99.99
2018-02-21T06:08:35.530Z,99.99
2018-02-21T06:09:35.284Z,99.99
2018-02-21T06:10:35.551Z,99.99
2018-02-21T06:11:35.563Z,99.99
2018-02-21T06:12:35.316Z,99.99
2018-02-21T06:13:35.586Z,99.99
2018-02-21T06:14:50.267Z,99.99
2018-02-21T06:15:35.610Z,99.99
2018-02-21T06:16:35.617Z,99.99
2018-02-21T06:17:35.629Z,99.99
2018-02-21T06:18:35.726Z,99.99
2018-02-21T06:19:35.652Z,99.99
2018-02-21T06:20:35.660Z,99.99
2018-02-21T06:21:35.672Z,99.99
2018-02-21T06:22:35.688Z,99.99
2018-02-21T06:23:35.695Z,99.99
2018-02-21T06:24:35.450Z,99.99
2018-02-21T06:25:35.718Z,99.99
2018-02-21T06:26:35.731Z,99.99
2018-02-21T06:27:35.741Z,99.99
2018-02-21T06:28:35.750Z,99.99
2018-02-21T06:29:35.763Z,99.99
2018-02-21T06:31:35.785Z,99.99
2018-02-21T06:32:35.798Z,99.99
2018-02-21T06:33:35.808Z,99.99
2018-02-21T06:34:35.820Z,99.99
2018-02-21T06:35:35.828Z,99.99
2018-02-21T06:36:35.841Z,99.99
2018-02-21T06:37:35.852Z,99.99
2018-02-21T06:38:35.868Z,99.99
2018-02-21T06:39:35.878Z,99.99
2018-02-21T06:40:35.890Z,99.99
2018-02-21T06:41:35.997Z,99.99
2018-02-21T06:42:35.908Z,99.99
2018-02-21T06:43:35.918Z,99.99
2018-02-21T06:44:35.929Z,99.99
2018-02-21T06:45:35.942Z,99.99
2018-02-21T06:46:50.627Z,99.99
2018-02-21T06:47:35.711Z,99.99
2018-02-21T06:48:35.723Z,99.99
2018-02-21T06:49:35.992Z,99.99
2018-02-21T06:50:35.746Z,99.99
2018-02-21T06:51:35.756Z,99.99
2018-02-21T06:52:35.771Z,99.99
2018-02-21T06:53:36.038Z,99.99
2018-02-21T06:54:36.084Z,99.99
2018-02-21T06:55:36.061Z,99.99
2018-02-21T06:56:36.079Z,99.99
2018-02-21T06:57:36.093Z,99.99
2018-02-21T06:58:36.096Z,99.99
2018-02-21T06:59:36.111Z,99.99
2018-02-21T07:00:36.122Z,99.99
2018-02-21T07:02:50.812Z,99.99
2018-02-21T07:03:36.160Z,99.99
2018-02-21T07:05:35.923Z,99.99
2018-02-21T07:06:36.191Z,99.99
2018-02-21T07:07:36.206Z,99.99
2018-02-21T07:08:36.213Z,99.99
2018-02-21T07:09:36.226Z,99.99
2018-02-21T07:10:36.341Z,99.99
2018-02-21T07:11:36.251Z,99.99
2018-02-21T07:12:36.263Z,99.99
2018-02-21T07:14:36.288Z,99.99
2018-02-21T07:15:36.410Z,99.99
2018-02-21T07:16:36.316Z,99.99
2018-02-21T07:17:36.330Z,99.99
2018-02-21T07:18:51.003Z,99.99
2018-02-21T07:19:36.348Z,99.99
2018-02-21T07:21:36.380Z,99.99
2018-02-21T07:22:36.384Z,99.99
2018-02-21T07:23:36.399Z,99.99
2018-02-21T07:24:36.412Z,99.99
2018-02-21T07:25:36.422Z,99.99
2018-02-21T07:26:36.438Z,99.99
2018-02-21T07:27:36.448Z,99.99
2018-02-21T07:28:36.466Z,99.99
2018-02-21T07:29:36.469Z,99.99
2018-02-21T07:30:36.489Z,99.99
2018-02-21T07:31:36.498Z,99.99
2018-02-21T07:32:36.510Z,99.99
2018-02-21T07:33:36.522Z,99.99
2018-02-21T07:34:51.201Z,99.99
2018-02-21T07:35:36.552Z,99.99
2018-02-21T07:36:36.564Z,99.99
2018-02-21T07:37:36.317Z,99.99
2018-02-21T07:38:36.585Z,99.99
2018-02-21T07:39:36.600Z,99.99
2018-02-21T07:40:36.356Z,99.99
2018-02-21T07:41:36.629Z,99.99
2018-02-21T07:42:36.384Z,99.99
2018-02-21T07:43:36.652Z,99.38
2018-02-21T07:44:36.666Z,99.38
2018-02-21T07:45:36.682Z,99.38
2018-02-21T07:46:36.695Z,99.28
2018-02-21T07:47:36.708Z,99.19
2018-02-21T07:48:36.469Z,98.9
2018-02-21T07:49:51.408Z,98.33
2018-02-21T07:50:36.757Z,98.81
2018-02-21T07:52:36.527Z,98.24
2018-02-21T07:53:36.802Z,98.05
2018-02-21T07:54:36.814Z,97.77
2018-02-21T07:55:36.829Z,97.53
2018-02-21T07:56:36.845Z,97.44
2018-02-21T07:57:36.858Z,97.53
2018-02-21T07:58:36.880Z,97.34
2018-02-21T07:59:36.896Z,96.97
2018-02-21T08:00:36.904Z,96.97
2018-02-21T08:01:36.665Z,96.31
2018-02-21T08:02:36.938Z,95.64
2018-02-21T08:03:36.970Z,95.93
2018-02-21T08:04:36.966Z,95.55
2018-02-21T08:05:36.987Z,95.64
2018-02-21T08:06:37.054Z,96.5
2018-02-21T08:07:37.015Z,96.69
2018-02-21T08:08:37.029Z,96.21
2018-02-21T08:09:36.788Z,96.21
2018-02-21T08:10:37.059Z,96.12
2018-02-21T08:11:36.820Z,95.93
2018-02-21T08:12:36.837Z,95.36
2018-02-21T08:13:37.108Z,95.45
2018-02-21T08:14:37.123Z,95.4
2018-02-21T08:15:37.138Z,95.03
2018-02-21T08:16:36.905Z,94.74
2018-02-21T08:17:37.167Z,94.84
2018-02-21T08:18:37.184Z,95.03
2018-02-21T08:19:37.201Z,94.37
2018-02-21T08:20:37.217Z,93.99
2018-02-21T08:21:51.900Z,93.51
2018-02-21T08:22:37.250Z,93.51
2018-02-21T08:23:37.264Z,93.13
2018-02-21T08:24:37.281Z,93.13
2018-02-21T08:25:37.041Z,93.7
2018-02-21T08:26:37.319Z,93.23
2018-02-21T08:27:37.429Z,92.76
2018-02-21T08:28:37.379Z,92.85
2018-02-21T08:29:37.105Z,92.57
2018-02-21T08:30:37.376Z,93.04
2018-02-21T08:31:37.393Z,92.85
2018-02-21T08:32:37.153Z,92.57
2018-02-21T08:33:37.425Z,92.19
2018-02-21T08:34:37.484Z,92.33
2018-02-21T08:35:37.458Z,92
2018-02-21T08:36:37.564Z,92.29
2018-02-21T08:37:52.156Z,92.38
2018-02-21T08:38:37.248Z,92.14
2018-02-21T08:39:37.519Z,91.86
2018-02-21T08:40:37.286Z,91.48
2018-02-21T08:41:37.297Z,91.19
2018-02-21T08:42:37.583Z,91.57
2018-02-21T08:43:37.330Z,91.86
2018-02-21T08:44:37.347Z,92.05
2018-02-21T08:45:37.621Z,91.57
2018-02-21T08:46:37.379Z,91.76
2018-02-21T08:47:37.650Z,91
2018-02-21T08:48:37.667Z,91.19
2018-02-21T08:49:37.427Z,91
2018-02-21T08:50:37.699Z,91.19
2018-02-21T08:51:37.459Z,91
2018-02-21T08:52:37.736Z,91.29
2018-02-21T08:53:52.416Z,91.29
2018-02-21T08:54:37.765Z,91.38
2018-02-21T08:55:37.780Z,91.86
2018-02-21T08:56:37.796Z,91.38
2018-02-21T08:57:37.816Z,91.86
2018-02-21T08:58:37.835Z,91.29
2018-02-21T08:59:37.846Z,90.81
2018-02-21T09:00:37.861Z,90.72
2018-02-21T09:01:37.624Z,89.87
2018-02-21T09:02:37.641Z,89.77
2018-02-21T09:03:37.912Z,89.49
2018-02-21T09:04:37.929Z,89.11
2018-02-21T09:05:37.953Z,89.96
2018-02-21T09:06:38.040Z,89.11
2018-02-21T09:07:37.723Z,89.87
2018-02-21T09:08:38.029Z,89.39
2018-02-21T09:09:52.680Z,89.11
2018-02-21T09:10:38.128Z,89.77
2018-02-21T09:11:38.051Z,89.11
2018-02-21T09:12:38.060Z,88.96
2018-02-21T09:13:38.080Z,89.06
2018-02-21T09:14:38.094Z,88.87
2018-02-21T09:15:38.111Z,88.21
2018-02-21T09:16:38.259Z,87.64
2018-02-21T09:17:38.151Z,87.92
2018-02-21T09:18:38.161Z,87.92
2018-02-21T09:19:38.183Z,88.02
2018-02-21T09:20:38.196Z,87.64
2018-02-21T09:21:38.336Z,88.3
2018-02-21T09:22:38.229Z,88.4
2018-02-21T09:23:38.247Z,88.17
2018-02-21T09:24:52.932Z,88.26
2018-02-21T09:25:38.282Z,88.73
2018-02-21T09:26:38.043Z,88.54
2018-02-21T09:27:38.321Z,89.01
2018-02-21T09:28:38.077Z,89.3
2018-02-21T09:29:38.351Z,89.2
2018-02-21T09:30:38.366Z,89.96
2018-02-21T09:31:38.391Z,89.63
2018-02-21T09:32:38.408Z,88.96
2018-02-21T09:33:38.421Z,88.11
2018-02-21T09:34:38.436Z,87.73
2018-02-21T09:35:38.452Z,87.35
2018-02-21T09:36:38.471Z,87.16
2018-02-21T09:37:38.488Z,86.79
2018-02-21T09:38:38.247Z,86.69
2018-02-21T09:39:38.520Z,87.45
2018-02-21T09:40:38.536Z,88.02
2018-02-21T09:42:38.572Z,88.21
2018-02-21T09:44:38.606Z,88.3
2018-02-21T09:45:38.620Z,87.83
2018-02-21T09:46:38.383Z,86.88
2018-02-21T09:47:38.658Z,86.98
2018-02-21T09:48:38.672Z,86.88
2018-02-21T09:49:38.689Z,87.26
2018-02-21T09:50:38.707Z,87.07
2018-02-21T09:51:38.473Z,87.35
2018-02-21T09:52:38.745Z,86.5
2018-02-21T09:53:38.764Z,86.5
2018-02-21T09:54:38.790Z,86.22
2018-02-21T09:55:38.545Z,85.88
2018-02-21T09:56:53.480Z,86.07
2018-02-21T09:57:38.826Z,85.6
2018-02-21T09:58:38.860Z,85.13
2018-02-21T10:00:38.879Z,85.31
2018-02-21T10:01:38.900Z,85.27
2018-02-21T10:02:38.660Z,85.65
2018-02-21T10:03:38.930Z,85.17
2018-02-21T10:04:38.954Z,85.46
2018-02-21T10:05:38.974Z,85.55
2018-02-21T10:06:38.729Z,85.08
2018-02-21T10:07:39.006Z,85.65
2018-02-21T10:08:39.019Z,84.8
2018-02-21T10:09:39.038Z,85.08
2018-02-21T10:10:39.056Z,85.36
2018-02-21T10:11:38.817Z,85.17
2018-02-21T10:12:53.756Z,85.13
2018-02-21T10:13:39.113Z,85.03
2018-02-21T10:14:39.129Z,83.51
2018-02-21T10:15:39.140Z,83.04
2018-02-21T10:16:38.902Z,82.94
2018-02-21T10:17:39.175Z,82.28
2018-02-21T10:18:39.191Z,82.47
2018-02-21T10:19:39.210Z,81.9
2018-02-21T10:20:39.234Z,81.75
2018-02-21T10:21:39.245Z,81.14
2018-02-21T10:22:39.265Z,81.14
2018-02-21T10:23:39.281Z,80.67
2018-02-21T10:24:39.300Z,80.62
2018-02-21T10:25:39.318Z,80.04
2018-02-21T10:27:39.351Z,79.47
2018-02-21T10:28:54.041Z,79.38
2018-02-21T10:30:39.152Z,79.47
2018-02-21T10:31:39.422Z,79.76
2018-02-21T10:32:39.444Z,79.47
2018-02-21T10:33:39.456Z,79.34
2018-02-21T10:34:39.473Z,79.53
2018-02-21T10:35:39.493Z,80
2018-02-21T10:36:39.252Z,80
2018-02-21T10:37:39.525Z,80.57
2018-02-21T10:38:39.543Z,80
2018-02-21T10:39:39.560Z,79.53
2018-02-21T10:40:39.578Z,79.34
2018-02-21T10:41:39.594Z,79.28
2018-02-21T10:42:39.617Z,78.72
2018-02-21T10:43:39.627Z,78.24
2018-02-21T10:44:54.314Z,78.05
2018-02-21T10:46:39.681Z,78.24
2018-02-21T10:47:39.700Z,78.15
2018-02-21T10:48:39.461Z,78.05
2018-02-21T10:49:39.733Z,77.86
2018-02-21T10:50:39.749Z,77.83
2018-02-21T10:51:39.768Z,77.92
2018-02-21T10:52:39.784Z,78.11
2018-02-21T10:53:39.805Z,79
2018-02-21T10:54:39.820Z,78.05
2018-02-21T10:55:39.836Z,78.24
2018-02-21T10:56:39.597Z,77.86
2018-02-21T10:57:39.876Z,77.48
2018-02-21T10:58:39.887Z,77.48
2018-02-21T10:59:54.573Z,76.73
2018-02-21T11:00:39.926Z,77.2
2018-02-21T11:01:40.939Z,76.82
2018-02-21T11:02:39.957Z,77.39
2018-02-21T11:03:39.974Z,78.02
2018-02-21T11:04:39.992Z,78.24
2018-02-21T11:05:40.012Z,77.77
2018-02-21T11:06:40.023Z,77.01
2018-02-21T11:07:40.038Z,77.39
2018-02-21T11:08:40.066Z,77.11
2018-02-21T11:09:40.074Z,76.54
2018-02-21T11:10:40.092Z,76.97
2018-02-21T11:11:40.110Z,77.25
2018-02-21T11:14:40.163Z,77.73
2018-02-21T11:15:40.177Z,77.92
2018-02-21T11:17:40.208Z,77.35
2018-02-21T11:18:40.231Z,76.97
2018-02-21T11:19:40.241Z,77.35
2018-02-21T11:20:40.263Z,77.16
2018-02-21T11:21:40.277Z,77.01
2018-02-21T11:22:40.301Z,77.35
2018-02-21T11:23:40.417Z,77.92
2018-02-21T11:24:40.325Z,77.45
2018-02-21T11:25:40.343Z,77.73
2018-02-21T11:26:40.357Z,78.11
2018-02-21T11:28:40.391Z,77.35
2018-02-21T11:29:40.409Z,77.16
2018-02-21T11:30:40.424Z,77.35
2018-02-21T11:31:55.116Z,76.12
2018-02-21T11:32:40.205Z,75.68
2018-02-21T11:33:40.476Z,74.92
2018-02-21T11:34:40.237Z,74.22
2018-02-21T11:35:40.507Z,73.84
2018-02-21T11:36:40.523Z,74.22
2018-02-21T11:37:40.541Z,74.51
2018-02-21T11:38:40.556Z,75.17
2018-02-21T11:39:40.572Z,75.55
2018-02-21T11:40:40.590Z,75.55
2018-02-21T11:41:40.606Z,75.45
2018-02-21T11:42:40.620Z,74.79
2018-02-21T11:43:40.639Z,74.32
2018-02-21T11:44:40.655Z,74.51
2018-02-21T11:45:40.671Z,74.98
2018-02-21T11:46:40.686Z,74.41
2018-02-21T11:47:55.371Z,74.51
2018-02-21T11:48:40.720Z,74.41
2018-02-21T11:49:40.738Z,73.75
2018-02-21T11:50:40.754Z,72.84
2018-02-21T11:51:40.769Z,72.04
2018-02-21T11:52:40.785Z,72.04
2018-02-21T11:53:40.801Z,72.14
2018-02-21T11:54:40.815Z,71.66
2018-02-21T11:55:40.839Z,71.38
2018-02-21T11:56:40.849Z,70.9
2018-02-21T11:57:40.977Z,70.43
2018-02-21T11:58:40.880Z,70.53
2018-02-21T11:59:40.904Z,70.72
2018-02-21T12:00:40.915Z,70.53
2018-02-21T12:01:40.934Z,70.53
2018-02-21T12:02:41.025Z,70.72
2018-02-21T12:03:55.630Z,70.53
2018-02-21T12:04:40.989Z,69.57
2018-02-21T12:05:41.005Z,68.63
2018-02-21T12:06:41.013Z,69.01
2018-02-21T12:07:41.027Z,67.87
2018-02-21T12:08:41.056Z,67.68
2018-02-21T12:09:41.066Z,67.77
2018-02-21T12:10:41.077Z,66.83
2018-02-21T12:11:41.090Z,66.64
2018-02-21T12:12:41.110Z,66.64
2018-02-21T12:13:41.127Z,66.07
2018-02-21T12:14:41.139Z,66.16
2018-02-21T12:15:41.163Z,66.64
2018-02-21T12:16:41.171Z,66.16
2018-02-21T12:18:41.204Z,66.16
2018-02-21T12:19:55.992Z,65.78
2018-02-21T12:20:41.238Z,66.07
2018-02-21T12:21:41.252Z,65.69
2018-02-21T12:22:41.264Z,65.88
2018-02-21T12:23:41.284Z,66.07
2018-02-21T12:24:41.298Z,65.97
2018-02-21T12:25:41.314Z,65.97
2018-02-21T12:26:41.386Z,66.07
2018-02-21T12:28:41.131Z,66.26
2018-02-21T12:29:41.423Z,66.45
2018-02-21T12:30:41.391Z,66.74
2018-02-21T12:32:41.455Z,66.83
2018-02-21T12:33:41.455Z,67.21
2018-02-21T12:34:56.133Z,67.11
2018-02-21T12:35:41.230Z,68.15
2018-02-21T12:36:41.511Z,67.68
2018-02-21T12:37:41.602Z,67.96
2018-02-21T12:38:41.543Z,68.15
2018-02-21T12:39:41.557Z,67.77
2018-02-21T12:41:41.597Z,67.49
2018-02-21T12:42:41.350Z,67.58
2018-02-21T12:43:41.610Z,67.68
2018-02-21T12:44:41.648Z,67.96
2018-02-21T12:45:41.644Z,68.35
2018-02-21T12:47:41.673Z,69.29
2018-02-21T12:48:41.701Z,69.67
2018-02-21T12:49:41.712Z,69.86
2018-02-21T12:50:41.735Z,70.28
2018-02-21T12:51:41.750Z,69.52
2018-02-21T12:52:41.494Z,69.52
2018-02-21T12:53:41.783Z,69.71
2018-02-21T12:54:41.797Z,69.48
2018-02-21T12:55:41.812Z,69.52
2018-02-21T12:56:41.822Z,69.23
2018-02-21T12:57:41.848Z,69.04
2018-02-21T12:58:41.862Z,68.85
2018-02-21T12:59:41.869Z,68.48
2018-02-21T13:00:41.902Z,67.62
2018-02-21T13:01:41.897Z,67.21
2018-02-21T13:02:41.921Z,68.06
2018-02-21T13:03:41.940Z,67.77
2018-02-21T13:04:41.961Z,67.58
2018-02-21T13:05:41.974Z,67.77
2018-02-21T13:06:56.634Z,67.87
2018-02-21T13:07:42.046Z,67.96
2018-02-21T13:08:42.012Z,68.35
2018-02-21T13:09:42.034Z,68.44
2018-02-21T13:10:41.792Z,68.15
2018-02-21T13:11:42.050Z,68.15
2018-02-21T13:12:42.082Z,67.49
2018-02-21T13:13:42.093Z,67.77
2018-02-21T13:15:42.128Z,67.49
2018-02-21T13:16:42.140Z,67.49
2018-02-21T13:17:42.184Z,67.87
2018-02-21T13:18:42.161Z,68
2018-02-21T13:19:42.194Z,67.71
2018-02-21T13:20:42.212Z,67.62
2018-02-21T13:21:41.950Z,66.96
2018-02-21T13:22:56.887Z,66.96
2018-02-21T13:23:42.260Z,66.48
2018-02-21T13:24:42.274Z,66.1
2018-02-21T13:25:42.293Z,65.91
2018-02-21T13:26:42.299Z,66.29
2018-02-21T13:27:42.327Z,66.1
2018-02-21T13:28:42.322Z,65.88
2018-02-21T13:29:42.354Z,66.29
2018-02-21T13:30:42.371Z,66.29
2018-02-21T13:31:42.383Z,65.72
2018-02-21T13:32:42.392Z,65.53